Terminal Aerodrome Forecast
Issued by NWS

Home | Current Version | Previous Version | Text Only | Print | Product List | Glossary On
Versions: 1 2 3 4 5 6 7 8 9 10 11 12 13 14 15 16 17 18 19
838
FTUS43 KSGF 211820 AAA
TAFBBG
TAF AMD
KBBG 211820Z 2118/2218 16011G20KT P6SM SCT030 BKN045
      TEMPO 2118/2122 BKN030
     FM220000 16011G20KT P6SM SCT035 BKN070 WS020/17035KT
     FM220700 21011G20KT 6SM -SHRA BR VCTS OVC020CB WS020/19045KT
      TEMPO 2207/2210 30025G35KT 2SM +TSRA BR OVC020CB
     FM221000 31013KT 5SM SHRA BR VCTS OVC010CB
     FM221200 31009KT P6SM OVC008
     FM221500 31013G21KT P6SM BKN015=

USA.gov is the U.S. government's official web portal to all federal, state and local government web resources and services.